Rio de Janeiro, Brazil
Current Conditions -  °F | °C
As of 11:00 PM on Thursday 18 Dec 2014 (Local Time) from SBRJ Reporting Station
Broken Clouds Broken Clouds  
Wind Chill: 79°   Ceiling: 7000
Heat Index: 81°   Visibility: 6mi
Dew Point: 68°   Wind: 6mph
Humidity: 69%   Direction: 180°S
Pressure: 29.8"   Gusts: NA
Location:  22.91°S, 43.2°W
Report Text: SBRJ 190100Z 18005KT 9999 FEW045 BKN070 26/20 Q1009
Loading
Personal Weather Stations






























Interactive Weather Map New forecast layout! Learn more

10-Day Weather Forecast

Advertisements
Track Severe Weather on mobile